Time;durP1;ratioP1;P1;durP2;ratioP2;P2;SDS_P1;SDS_P2;PMS_P1;PMS_P2;Temp;Humidity;BMP_temperature;BMP_pressure;BME280_temperature;BME280_humidity;BME280_pressure;Samples;Min_cycle;Max_cycle;Signal;HPM_P1;HPM_P2
2023/06/15 00:01:20;;;;;;;6.75;4.05;;;15.80;50.90;;;;;;5054414;28;20041;-70
2023/06/15 00:03:45;;;;;;;6.53;3.95;;;15.80;50.60;;;;;;5054140;28;20040;-70
2023/06/15 00:06:11;;;;;;;5.38;4.10;;;15.80;51.00;;;;;;5053866;28;20049;-69
2023/06/15 00:08:36;;;;;;;5.18;4.38;;;15.70;50.60;;;;;;5053870;28;20570;-70
2023/06/15 00:11:03;;;;;;;4.75;4.05;;;15.80;50.80;;;;;;5054158;28;20478;-70
2023/06/15 00:13:29;;;;;;;5.18;4.32;;;15.70;51.00;;;;;;5054014;28;20060;-70
2023/06/15 00:15:55;;;;;;;5.47;4.30;;;15.70;51.10;;;;;;5054217;28;20017;-70
2023/06/15 00:18:20;;;;;;;6.43;3.92;;;15.70;51.10;;;;;;5054008;28;20028;-70
2023/06/15 00:20:47;;;;;;;4.97;4.47;;;15.80;51.40;;;;;;5053859;28;20028;-70
2023/06/15 00:23:17;;;;;;;4.53;3.63;;;15.80;51.10;;;;;;5053734;28;20108;-70
2023/06/15 00:25:42;;;;;;;13.55;4.25;;;15.80;51.00;;;;;;5053730;28;20024;-70
2023/06/15 00:28:08;;;;;;;7.50;4.22;;;15.80;51.00;;;;;;5053547;28;20033;-70
2023/06/15 00:30:33;;;;;;;7.68;4.72;;;15.80;51.10;;;;;;5053625;28;20025;-70
2023/06/15 00:32:59;;;;;;;8.20;4.38;;;15.70;51.30;;;;;;5053697;28;20048;-69
2023/06/15 00:35:25;;;;;;;5.00;4.25;;;15.60;51.80;;;;;;5053424;28;20029;-70
2023/06/15 00:37:50;;;;;;;5.95;4.65;;;15.60;51.80;;;;;;5053367;28;20028;-70
2023/06/15 00:40:16;;;;;;;6.85;4.10;;;15.50;51.90;;;;;;5053524;28;20478;-70
2023/06/15 00:42:41;;;;;;;4.75;4.20;;;15.50;52.00;;;;;;5053606;28;20469;-70
2023/06/15 00:45:07;;;;;;;6.90;4.50;;;15.50;52.10;;;;;;5053425;28;20024;-70
2023/06/15 00:47:38;;;;;;;5.35;4.28;;;15.60;52.00;;;;;;5053502;28;20032;-70
2023/06/15 00:50:14;;;;;;;6.80;4.15;;;15.70;52.20;;;;;;5053478;28;20112;-70
2023/06/15 00:52:40;;;;;;;4.75;4.10;;;15.70;52.10;;;;;;5053288;28;20529;-70
2023/06/15 00:55:06;;;;;;;4.50;3.83;;;15.90;52.20;;;;;;5053404;28;20487;-70
2023/06/15 00:57:34;;;;;;;4.80;3.85;;;15.90;52.20;;;;;;5045809;28;20060;-70
2023/06/15 01:00:00;;;;;;;5.30;4.22;;;15.90;52.20;;;;;;5033006;28;20120;-70
2023/06/15 01:02:28;;;;;;;4.68;4.28;;;15.90;52.10;;;;;;5033062;28;20417;-70
2023/06/15 01:04:54;;;;;;;5.85;4.32;;;15.80;52.00;;;;;;5015597;28;20059;-70
2023/06/15 01:07:20;;;;;;;6.93;4.88;;;15.80;52.50;;;;;;5033127;28;20069;-70
2023/06/15 01:09:47;;;;;;;6.60;4.25;;;15.70;53.30;;;;;;5033501;28;20061;-70
2023/06/15 01:12:14;;;;;;;5.95;4.30;;;15.70;53.20;;;;;;5033056;28;20030;-69
2023/06/15 01:14:40;;;;;;;6.82;4.97;;;15.70;53.00;;;;;;5033150;28;20060;-70
2023/06/15 01:17:13;;;;;;;5.18;4.68;;;15.70;52.90;;;;;;5033115;28;20018;-71
2023/06/15 01:20:06;;;;;;;5.03;4.32;;;15.70;53.10;;;;;;5033005;28;20470;-70
2023/06/15 01:22:55;;;;;;;5.80;5.05;;;15.60;53.20;;;;;;5032851;28;20042;-69
2023/06/15 01:25:29;;;;;;;7.13;4.68;;;15.60;53.50;;;;;;5032794;28;20041;-70
2023/06/15 01:28:01;;;;;;;8.60;4.57;;;15.60;53.60;;;;;;5032933;28;20486;-70
2023/06/15 01:30:56;;;;;;;4.78;4.10;;;15.60;53.70;;;;;;5032942;28;20107;-70
2023/06/15 01:33:23;;;;;;;4.90;4.40;;;15.60;53.80;;;;;;5032721;28;20060;-70
2023/06/15 01:35:48;;;;;;;9.65;4.82;;;15.60;53.80;;;;;;5032813;28;20022;-70
2023/06/15 01:38:17;;;;;;;5.80;5.13;;;15.60;53.80;;;;;;5032897;28;20363;-69
2023/06/15 01:40:46;;;;;;;5.22;4.72;;;15.60;54.20;;;;;;5032789;28;20030;-69
2023/06/15 01:43:15;;;;;;;6.97;5.45;;;15.60;54.00;;;;;;5032715;28;20052;-69
2023/06/15 01:45:42;;;;;;;6.25;5.25;;;15.50;54.30;;;;;;5015087;28;20030;-69
2023/06/15 01:48:08;;;;;;;6.75;5.28;;;15.40;54.80;;;;;;5014994;28;20105;-69
2023/06/15 01:50:35;;;;;;;10.25;5.28;;;15.30;55.10;;;;;;5032703;28;20026;-69
2023/06/15 01:53:02;;;;;;;5.55;5.05;;;15.10;55.50;;;;;;5032714;28;20021;-69
2023/06/15 01:55:27;;;;;;;6.00;4.93;;;15.10;55.60;;;;;;5032693;28;20083;-69
2023/06/15 01:57:54;;;;;;;6.25;4.60;;;15.10;55.40;;;;;;5032334;28;20030;-69
2023/06/15 02:00:22;;;;;;;5.80;4.90;;;15.20;55.10;;;;;;5032587;28;20021;-69
2023/06/15 02:02:48;;;;;;;5.88;4.78;;;15.30;54.90;;;;;;5032699;28;20502;-69
2023/06/15 02:05:14;;;;;;;5.80;4.45;;;15.30;54.90;;;;;;5032437;28;20060;-69
2023/06/15 02:07:40;;;;;;;6.40;4.78;;;15.30;55.10;;;;;;5014458;28;20045;-69
2023/06/15 02:10:07;;;;;;;7.78;4.88;;;15.30;55.20;;;;;;5032410;28;20040;-69
2023/06/15 02:12:32;;;;;;;5.05;4.47;;;15.30;55.20;;;;;;5035202;28;20474;-69
2023/06/15 02:15:01;;;;;;;6.45;4.65;;;15.20;55.20;;;;;;5036318;28;20032;-69
2023/06/15 02:17:30;;;;;;;5.82;4.47;;;15.30;55.40;;;;;;5036056;28;20154;-69
2023/06/15 02:19:56;;;;;;;6.28;4.90;;;15.20;55.40;;;;;;5036200;28;20029;-69
2023/06/15 02:22:21;;;;;;;6.82;4.53;;;15.20;55.50;;;;;;5036188;28;20428;-69
2023/06/15 02:24:47;;;;;;;5.78;4.32;;;15.20;55.40;;;;;;5036140;28;20036;-69
2023/06/15 02:27:13;;;;;;;5.30;4.07;;;15.20;55.40;;;;;;5036050;28;20497;-69
2023/06/15 02:29:38;;;;;;;4.82;4.43;;;15.20;55.40;;;;;;5035955;28;20402;-69
2023/06/15 02:32:04;;;;;;;4.53;4.13;;;15.20;55.50;;;;;;5018238;28;20102;-69
2023/06/15 02:34:30;;;;;;;5.72;5.07;;;15.20;55.40;;;;;;5018066;28;20021;-69
2023/06/15 02:36:56;;;;;;;6.43;4.93;;;15.30;55.60;;;;;;5035902;28;20017;-69
2023/06/15 02:39:22;;;;;;;9.40;5.25;;;15.30;55.50;;;;;;5018087;28;20378;-69
2023/06/15 02:41:47;;;;;;;6.40;4.50;;;15.30;55.30;;;;;;5035731;28;20022;-68
2023/06/15 02:44:16;;;;;;;5.50;4.60;;;15.30;55.20;;;;;;5035743;28;20073;-68
2023/06/15 02:46:43;;;;;;;8.73;4.90;;;15.30;55.00;;;;;;5035599;28;20029;-69
2023/06/15 02:49:09;;;;;;;5.82;4.30;;;15.30;55.00;;;;;;5035541;28;20072;-69
2023/06/15 02:51:35;;;;;;;4.97;4.47;;;15.30;55.20;;;;;;5035582;28;20021;-68
2023/06/15 02:54:01;;;;;;;7.10;4.88;;;15.30;55.30;;;;;;5035617;28;20037;-70
2023/06/15 02:56:29;;;;;;;5.63;4.57;;;15.30;55.40;;;;;;5035482;28;20045;-70
2023/06/15 02:58:54;;;;;;;6.43;4.50;;;15.30;55.40;;;;;;5035816;28;20105;-70
2023/06/15 03:01:21;;;;;;;4.45;4.05;;;15.30;55.60;;;;;;5035404;28;20045;-68
2023/06/15 03:03:47;;;;;;;6.07;5.10;;;15.20;55.80;;;;;;5035437;28;20021;-69
2023/06/15 03:06:14;;;;;;;6.18;5.10;;;15.10;56.20;;;;;;5035348;28;20021;-68
2023/06/15 03:08:41;;;;;;;6.47;4.65;;;15.00;56.20;;;;;;5034892;28;20057;-69
2023/06/15 03:11:06;;;;;;;5.90;5.07;;;15.00;56.40;;;;;;5035400;28;20034;-69
2023/06/15 03:13:33;;;;;;;6.57;4.88;;;14.90;56.90;;;;;;5035109;28;20029;-70
2023/06/15 03:16:01;;;;;;;7.93;4.90;;;14.80;57.10;;;;;;5035053;28;20498;-69
2023/06/15 03:18:30;;;;;;;7.47;4.82;;;14.70;57.50;;;;;;5035109;28;20025;-70
2023/06/15 03:20:57;;;;;;;5.47;4.88;;;14.70;57.60;;;;;;5034966;28;20100;-69
2023/06/15 03:23:24;;;;;;;5.20;4.50;;;14.70;57.80;;;;;;5034902;28;20104;-69
2023/06/15 03:25:49;;;;;;;5.50;5.00;;;14.60;57.70;;;;;;5034888;28;20113;-70
2023/06/15 03:28:16;;;;;;;7.40;5.30;;;14.70;57.80;;;;;;5034850;28;20117;-68
2023/06/15 03:30:46;;;;;;;6.95;4.97;;;14.60;57.70;;;;;;5034881;28;20025;-68
2023/06/15 03:33:13;;;;;;;5.70;5.00;;;14.70;57.60;;;;;;5034915;28;20482;-69
2023/06/15 03:35:38;;;;;;;6.53;5.85;;;14.60;57.50;;;;;;5034954;28;20387;-69
2023/06/15 03:38:05;;;;;;;9.63;5.00;;;14.60;57.70;;;;;;5034834;28;20024;-69
2023/06/15 03:40:36;;;;;;;5.40;4.70;;;14.60;57.70;;;;;;5034728;28;20049;-70
2023/06/15 03:43:02;;;;;;;7.70;4.88;;;14.70;57.80;;;;;;5034697;28;20026;-71
2023/06/15 03:45:27;;;;;;;5.57;4.88;;;14.70;57.70;;;;;;5034657;28;20075;-69
2023/06/15 03:47:53;;;;;;;7.65;5.38;;;14.70;57.70;;;;;;5034946;28;20030;-70
2023/06/15 03:50:18;;;;;;;8.27;4.68;;;14.70;57.60;;;;;;5034579;28;20026;-70
2023/06/15 03:52:44;;;;;;;6.10;4.22;;;14.70;57.60;;;;;;5034368;28;20053;-70
2023/06/15 03:55:12;;;;;;;6.43;5.07;;;14.80;57.60;;;;;;5034178;28;20044;-70
2023/06/15 03:57:37;;;;;;;5.75;4.75;;;14.80;57.50;;;;;;5034217;28;20040;-70
2023/06/15 04:00:07;;;;;;;5.65;5.00;;;14.80;57.30;;;;;;5034611;28;20026;-69
2023/06/15 04:02:33;;;;;;;6.82;5.10;;;14.70;57.40;;;;;;5033861;28;20111;-70
2023/06/15 04:05:00;;;;;;;6.32;5.25;;;14.70;57.50;;;;;;5033930;28;20076;-69
2023/06/15 04:07:28;;;;;;;5.45;4.95;;;14.70;57.70;;;;;;5034091;28;20462;-69
2023/06/15 04:09:53;;;;;;;6.78;4.95;;;14.70;57.80;;;;;;5034069;28;20044;-69
2023/06/15 04:12:19;;;;;;;6.38;4.80;;;14.70;57.50;;;;;;5033892;28;20025;-69
2023/06/15 04:14:45;;;;;;;5.40;4.72;;;14.80;57.30;;;;;;5034304;28;20045;-69
2023/06/15 04:17:12;;;;;;;5.63;5.03;;;14.80;57.20;;;;;;5034088;28;20474;-69
2023/06/15 04:19:37;;;;;;;6.43;4.55;;;14.90;57.00;;;;;;5033864;28;20037;-72
2023/06/15 04:22:03;;;;;;;11.80;5.53;;;15.00;56.60;;;;;;5033915;28;20021;-69
2023/06/15 04:24:28;;;;;;;5.68;5.07;;;15.00;56.70;;;;;;5034140;28;20026;-69
2023/06/15 04:26:57;;;;;;;7.20;5.72;;;15.10;56.60;;;;;;5033813;28;20036;-69
2023/06/15 04:29:23;;;;;;;6.30;5.55;;;15.20;56.30;;;;;;5033718;28;20034;-69
2023/06/15 04:31:54;;;;;;;10.15;5.50;;;15.30;56.20;;;;;;5033704;28;20083;-70
2023/06/15 04:34:22;;;;;;;7.80;5.30;;;15.30;56.00;;;;;;5033676;28;20441;-69
2023/06/15 04:36:48;;;;;;;5.13;4.63;;;15.40;55.70;;;;;;5033772;28;20382;-82
2023/06/15 04:39:14;;;;;;;8.15;5.13;;;15.50;55.40;;;;;;5033776;28;20068;-74
2023/06/15 04:41:40;;;;;;;6.13;4.65;;;15.70;55.10;;;;;;5033717;28;20061;-71
2023/06/15 04:44:06;;;;;;;5.32;4.82;;;15.80;54.90;;;;;;5015942;28;20036;-83
2023/06/15 04:46:32;;;;;;;7.65;4.70;;;15.90;54.80;;;;;;5033576;28;20052;-70
2023/06/15 04:48:58;;;;;;;5.70;4.78;;;16.00;54.50;;;;;;5033443;28;20390;-70
2023/06/15 04:51:23;;;;;;;5.18;4.45;;;16.10;54.30;;;;;;5033734;28;20025;-70
2023/06/15 04:53:49;;;;;;;7.78;4.60;;;16.20;54.10;;;;;;5033680;28;20037;-70
2023/06/15 04:56:15;;;;;;;8.05;4.90;;;16.20;54.00;;;;;;5033705;28;20040;-70
2023/06/15 04:58:41;;;;;;;6.40;4.47;;;16.30;54.10;;;;;;5033346;28;20102;-70
2023/06/15 05:01:07;;;;;;;7.47;4.60;;;16.30;53.80;;;;;;5033262;28;20426;-70
2023/06/15 05:03:33;;;;;;;6.20;5.07;;;16.40;53.20;;;;;;5033255;28;20025;-70
2023/06/15 05:05:58;;;;;;;9.45;5.32;;;16.40;52.80;;;;;;5033283;28;20027;-70
2023/06/15 05:08:24;;;;;;;6.97;4.32;;;16.40;52.40;;;;;;5032946;28;20120;-69
2023/06/15 05:10:50;;;;;;;7.22;4.75;;;16.50;52.40;;;;;;5033176;28;20060;-70
2023/06/15 05:13:16;;;;;;;9.80;5.55;;;16.50;52.30;;;;;;5033084;28;20113;-70
2023/06/15 05:15:41;;;;;;;6.97;4.72;;;16.50;52.10;;;;;;5033221;28;20030;-70
2023/06/15 05:18:07;;;;;;;6.07;4.95;;;16.60;52.00;;;;;;5032851;28;20075;-70
2023/06/15 05:20:32;;;;;;;8.07;5.07;;;16.60;51.60;;;;;;5032836;28;20025;-70
2023/06/15 05:22:58;;;;;;;6.10;4.93;;;16.70;51.80;;;;;;5032754;28;20377;-70
2023/06/15 05:25:23;;;;;;;6.78;5.05;;;16.90;51.70;;;;;;5032685;28;20144;-70
2023/06/15 05:27:49;;;;;;;6.22;4.78;;;17.00;51.60;;;;;;5032712;28;20053;-70
2023/06/15 05:30:15;;;;;;;6.45;4.65;;;17.10;51.60;;;;;;5032063;28;20037;-70
2023/06/15 05:32:40;;;;;;;5.57;4.78;;;17.10;51.50;;;;;;5032542;28;20018;-71
2023/06/15 05:35:07;;;;;;;6.15;4.90;;;17.30;51.70;;;;;;5032442;28;20029;-71
2023/06/15 05:37:37;;;;;;;6.40;4.57;;;17.40;51.50;;;;;;5032582;28;20101;-71
2023/06/15 05:40:03;;;;;;;7.30;5.22;;;17.50;51.20;;;;;;5032874;28;20029;-70
2023/06/15 05:42:29;;;;;;;7.38;5.18;;;17.60;51.10;;;;;;5032633;28;20018;-71
2023/06/15 05:44:55;;;;;;;8.00;4.85;;;17.70;51.00;;;;;;5033013;28;20032;-71
2023/06/15 05:47:21;;;;;;;10.95;4.93;;;17.70;50.60;;;;;;5035555;28;20029;-70
2023/06/15 05:49:47;;;;;;;10.23;5.82;;;17.60;49.90;;;;;;5036496;28;20068;-70
2023/06/15 05:52:14;;;;;;;7.78;5.35;;;17.40;50.20;;;;;;5036632;28;20028;-70
2023/06/15 05:54:43;;;;;;;6.63;4.60;;;17.30;50.80;;;;;;5036107;28;20053;-71
2023/06/15 05:57:10;;;;;;;6.40;4.75;;;17.40;50.60;;;;;;5036211;28;20083;-71
2023/06/15 05:59:36;;;;;;;7.43;5.25;;;17.30;50.80;;;;;;5036437;28;20021;-70
2023/06/15 06:02:02;;;;;;;7.15;5.80;;;17.30;51.60;;;;;;5036336;28;20110;-69
2023/06/15 06:04:27;;;;;;;7.93;5.35;;;17.20;52.20;;;;;;5036109;28;20029;-70
2023/06/15 06:06:53;;;;;;;8.73;5.35;;;17.00;52.50;;;;;;5035930;28;20032;-70
2023/06/15 06:09:18;;;;;;;10.70;5.80;;;17.00;52.70;;;;;;5034785;28;20413;-69
2023/06/15 06:11:47;;;;;;;5.90;4.57;;;17.00;52.90;;;;;;5034795;28;20029;-71
2023/06/15 06:14:16;;;;;;;6.10;4.90;;;17.00;53.20;;;;;;5035035;28;20025;-70
2023/06/15 06:16:42;;;;;;;9.07;6.57;;;17.10;53.10;;;;;;5036286;28;20036;-70
2023/06/15 06:19:07;;;;;;;9.18;6.28;;;17.20;52.50;;;;;;5057032;28;20083;-71
2023/06/15 06:21:33;;;;;;;7.05;5.20;;;17.40;52.10;;;;;;5054394;28;20032;-71
2023/06/15 06:23:59;;;;;;;8.35;5.68;;;17.50;51.50;;;;;;5054642;28;20025;-72
2023/06/15 06:26:25;;;;;;;8.63;4.85;;;17.50;51.10;;;;;;5054697;28;20094;-72
2023/06/15 06:28:51;;;;;;;9.05;5.53;;;17.40;52.80;;;;;;5036527;28;20709;-71
2023/06/15 06:31:17;;;;;;;11.45;5.53;;;17.90;52.50;;;;;;5054401;28;20037;-72
2023/06/15 06:33:42;;;;;;;10.57;5.80;;;18.30;50.50;;;;;;5054689;28;20025;-72
2023/06/15 06:36:08;;;;;;;9.10;5.00;;;18.60;49.30;;;;;;5054391;28;20044;-71
2023/06/15 06:38:34;;;;;;;7.60;4.90;;;18.70;48.40;;;;;;5036683;28;20431;-72
2023/06/15 06:41:00;;;;;;;10.27;5.80;;;19.00;48.50;;;;;;5054391;28;20028;-72
2023/06/15 06:43:26;;;;;;;10.65;5.75;;;19.20;47.20;;;;;;5054524;28;20557;-72
2023/06/15 06:45:51;;;;;;;13.23;6.35;;;19.30;47.10;;;;;;5054397;28;20468;-73
2023/06/15 06:48:17;;;;;;;6.25;5.38;;;19.00;47.40;;;;;;5054082;28;20469;-72
2023/06/15 06:50:43;;;;;;;7.57;5.10;;;18.60;48.50;;;;;;5054347;28;20064;-72
2023/06/15 06:53:08;;;;;;;11.70;5.75;;;18.80;48.80;;;;;;5054275;28;20025;-71
2023/06/15 06:55:34;;;;;;;16.85;6.10;;;19.00;48.20;;;;;;5053989;28;20031;-71
2023/06/15 06:58:00;;;;;;;11.70;5.60;;;19.30;48.30;;;;;;5053821;28;20104;-72
2023/06/15 07:00:28;;;;;;;6.43;4.93;;;19.60;46.50;;;;;;5054070;28;20025;-72
2023/06/15 07:02:53;;;;;;;6.32;4.75;;;19.80;46.60;;;;;;5054157;28;20029;-72
2023/06/15 07:05:19;;;;;;;8.38;4.55;;;20.10;45.20;;;;;;5036081;28;20615;-72
2023/06/15 07:07:45;;;;;;;6.72;5.05;;;20.20;44.90;;;;;;5018037;28;1032156;-73
2023/06/15 07:10:10;;;;;;;6.82;5.20;;;20.40;44.30;;;;;;5054949;28;20108;-72
2023/06/15 07:12:36;;;;;;;9.07;4.97;;;20.40;43.70;;;;;;5055058;28;20029;-73
2023/06/15 07:15:02;;;;;;;6.78;4.95;;;20.40;44.20;;;;;;5054977;28;20021;-73
2023/06/15 07:17:28;;;;;;;8.95;5.00;;;20.60;43.90;;;;;;5054923;28;20358;-77
2023/06/15 07:19:53;;;;;;;6.45;4.72;;;20.70;43.60;;;;;;5054551;28;20029;-74
2023/06/15 07:22:20;;;;;;;6.93;4.65;;;20.80;43.60;;;;;;5054815;28;20539;-72
2023/06/15 07:24:46;;;;;;;7.15;4.68;;;21.00;43.00;;;;;;5036708;28;20021;-72
2023/06/15 07:27:11;;;;;;;6.28;4.45;;;21.10;43.00;;;;;;5054598;28;20087;-73
2023/06/15 07:29:37;;;;;;;7.88;5.28;;;21.40;42.60;;;;;;5054569;28;20037;-75
2023/06/15 07:32:02;;;;;;;6.13;4.75;;;21.50;41.70;;;;;;5054594;28;20029;-72
2023/06/15 07:34:28;;;;;;;6.47;4.53;;;21.70;41.40;;;;;;5054550;28;20025;-73
2023/06/15 07:36:53;;;;;;;10.82;5.65;;;21.80;41.10;;;;;;5054483;28;20033;-73
2023/06/15 07:39:19;;;;;;;6.47;5.05;;;21.70;41.70;;;;;;5054379;28;20025;-73
2023/06/15 07:41:45;;;;;;;11.70;5.43;;;21.80;41.70;;;;;;5054388;28;20033;-73
2023/06/15 07:44:12;;;;;;;7.63;4.45;;;21.70;41.90;;;;;;5036478;28;20043;-72
2023/06/15 07:46:41;;;;;;;9.48;5.50;;;21.80;41.40;;;;;;5054372;28;20429;-73
2023/06/15 07:49:07;;;;;;;7.82;4.93;;;21.90;41.90;;;;;;5054307;28;20045;-73
2023/06/15 07:51:33;;;;;;;10.85;4.60;;;21.70;41.70;;;;;;5054105;28;20104;-72
2023/06/15 07:53:59;;;;;;;8.43;5.45;;;21.90;41.80;;;;;;5054138;28;20492;-72
2023/06/15 07:56:25;;;;;;;9.23;7.07;;;21.70;41.20;;;;;;5054150;28;20021;-73
2023/06/15 07:58:51;;;;;;;8.68;5.18;;;21.20;43.40;;;;;;5054075;28;20448;-73
2023/06/15 08:01:17;;;;;;;7.88;5.00;;;21.20;43.60;;;;;;5054052;28;20309;-74
2023/06/15 08:03:42;;;;;;;6.45;5.22;;;21.40;43.60;;;;;;5054326;28;20401;-73
2023/06/15 08:06:08;;;;;;;7.70;5.53;;;21.40;43.00;;;;;;5053997;28;20036;-73
2023/06/15 08:08:33;;;;;;;9.88;5.25;;;21.60;42.80;;;;;;5052638;28;20052;-73
2023/06/15 08:11:00;;;;;;;11.30;4.75;;;21.70;42.20;;;;;;5053636;28;20033;-73
2023/06/15 08:13:25;;;;;;;5.30;4.15;;;21.60;42.60;;;;;;5035765;28;20083;-73
2023/06/15 08:15:52;;;;;;;11.45;4.80;;;21.90;42.30;;;;;;5053706;28;20465;-73
2023/06/15 08:18:17;;;;;;;11.60;4.72;;;22.10;41.40;;;;;;5053758;28;20060;-73
2023/06/15 08:20:43;;;;;;;8.10;4.72;;;22.40;41.10;;;;;;5053727;28;20418;-74
2023/06/15 08:23:08;;;;;;;5.45;4.45;;;22.50;41.00;;;;;;5053692;28;20078;-73
2023/06/15 08:25:34;;;;;;;7.00;3.85;;;22.60;40.70;;;;;;5053665;28;20025;-74
2023/06/15 08:28:01;;;;;;;6.57;4.45;;;22.60;40.40;;;;;;5053530;28;20064;-74
2023/06/15 08:30:27;;;;;;;6.20;5.00;;;22.80;39.70;;;;;;5053564;28;20021;-74
2023/06/15 08:32:52;;;;;;;8.32;4.40;;;23.00;39.00;;;;;;5053395;28;20021;-75
2023/06/15 08:35:18;;;;;;;8.70;4.32;;;23.20;38.70;;;;;;5053342;28;20086;-77
2023/06/15 08:37:43;;;;;;;8.25;4.10;;;23.30;38.20;;;;;;5053355;28;20473;-78
2023/06/15 08:40:10;;;;;;;6.80;3.88;;;23.50;37.90;;;;;;5052876;28;20029;-77
2023/06/15 08:42:38;;;;;;;8.80;4.20;;;23.60;37.40;;;;;;5053296;28;20025;-78
2023/06/15 08:45:05;;;;;;;5.65;3.67;;;23.70;37.30;;;;;;5035566;28;20032;-79
2023/06/15 08:47:32;;;;;;;7.75;4.20;;;23.70;37.30;;;;;;5053242;28;20124;-76
2023/06/15 08:50:00;;;;;;;7.57;4.28;;;23.80;36.50;;;;;;5052868;28;20053;-74
2023/06/15 08:52:28;;;;;;;5.70;4.05;;;23.70;35.60;;;;;;5035132;28;20045;-75
2023/06/15 08:54:54;;;;;;;6.55;3.60;;;23.40;35.80;;;;;;5053297;28;20417;-73
2023/06/15 08:57:21;;;;;;;5.50;3.72;;;23.30;35.60;;;;;;5053011;28;20041;-74
2023/06/15 08:59:46;;;;;;;14.13;4.70;;;23.40;35.30;;;;;;5035482;28;20105;-76
2023/06/15 09:02:22;;;;;;;12.88;4.30;;;23.60;35.40;;;;;;5023329;28;20466;-74
2023/06/15 09:04:51;;;;;;;5.53;3.50;;;23.80;33.60;;;;;;5021810;28;20367;-72
2023/06/15 09:07:21;;;;;;;6.65;3.17;;;23.90;32.60;;;;;;5022859;28;20033;-76
2023/06/15 09:10:11;;;;;;;9.70;3.97;;;24.00;32.60;;;;;;5022356;28;20120;-76
2023/06/15 09:12:57;;;;;;;13.98;4.30;;;24.30;32.80;;;;;;5017269;28;20038;-74
2023/06/15 09:15:27;;;;;;;13.23;4.15;;;24.50;32.70;;;;;;5003770;28;20091;-73
2023/06/15 09:17:55;;;;;;;9.15;3.65;;;24.60;32.50;;;;;;5006303;28;20402;-74
2023/06/15 09:20:24;;;;;;;8.00;3.25;;;24.70;32.60;;;;;;5003283;28;20037;-73
2023/06/15 09:22:51;;;;;;;8.85;3.50;;;24.80;31.60;;;;;;5024132;28;20021;-76
2023/06/15 09:25:21;;;;;;;9.43;3.40;;;24.90;31.20;;;;;;5004881;28;20053;-73
2023/06/15 09:27:57;;;;;;;8.00;3.63;;;25.00;30.80;;;;;;5007339;28;20032;-78
2023/06/15 09:30:32;;;;;;;13.57;4.03;;;24.90;30.20;;;;;;5014565;28;20029;-79
2023/06/15 09:32:58;;;;;;;;;;;24.90;30.30;;;;;;5014989;28;20057;-74
2023/06/15 09:35:24;;;;;;;7.63;3.47;;;25.00;29.40;;;;;;5015107;28;19956;-72
2023/06/15 09:37:55;;;;;;;21.67;4.88;;;25.00;29.40;;;;;;5015007;28;20056;-77
2023/06/15 09:40:23;;;;;;;6.63;3.47;;;24.90;29.20;;;;;;5032381;28;20029;-75
2023/06/15 09:42:55;;;;;;;13.55;3.58;;;24.80;29.10;;;;;;5014736;28;20022;-72
2023/06/15 09:45:21;;;;;;;19.42;4.38;;;24.70;29.30;;;;;;5025933;28;20022;-72
2023/06/15 09:47:56;;;;;;;12.20;4.05;;;24.60;29.00;;;;;;5022727;28;20492;-72
2023/06/15 09:50:29;;;;;;;18.67;4.57;;;24.50;29.20;;;;;;5021376;28;20024;-77
2023/06/15 09:52:59;;;;;;;6.03;3.47;;;24.60;29.70;;;;;;5021416;28;20037;-75
2023/06/15 09:55:24;;;;;;;4.93;3.50;;;24.70;29.70;;;;;;5005702;28;20071;-73
2023/06/15 09:57:52;;;;;;;8.15;3.28;;;24.70;28.90;;;;;;5022603;28;20414;-80
2023/06/15 10:00:18;;;;;;;7.25;3.33;;;24.60;28.40;;;;;;5021052;28;20374;-76
2023/06/15 10:02:47;;;;;;;5.03;3.35;;;24.70;29.40;;;;;;5025295;28;20383;-73
2023/06/15 10:05:14;;;;;;;8.25;3.28;;;24.80;28.90;;;;;;5022787;28;20036;-78
2023/06/15 10:07:46;;;;;;;6.68;3.70;;;24.70;29.10;;;;;;5020695;28;20471;-73
2023/06/15 10:10:15;;;;;;;4.82;3.35;;;24.70;28.90;;;;;;5022729;28;20045;-74
2023/06/15 10:12:45;;;;;;;6.15;3.33;;;24.60;29.00;;;;;;5020218;28;20458;-73
2023/06/15 10:15:15;;;;;;;6.93;3.45;;;24.60;28.90;;;;;;5024615;28;20381;-75
2023/06/15 10:17:46;;;;;;;5.97;3.55;;;24.50;29.00;;;;;;5023461;28;20022;-72
2023/06/15 10:20:17;;;;;;;4.78;3.17;;;24.60;28.90;;;;;;5020512;28;20024;-75
2023/06/15 10:23:03;;;;;;;3.80;2.88;;;24.60;28.90;;;;;;5017806;28;20381;-72
2023/06/15 10:25:30;;;;;;;5.95;3.33;;;24.70;29.40;;;;;;5022966;28;20029;-74
2023/06/15 10:27:56;;;;;;;4.35;2.90;;;24.90;28.90;;;;;;5021706;28;20018;-72
2023/06/15 10:30:35;;;;;;;5.35;3.00;;;25.30;28.60;;;;;;5023387;28;20024;-72
2023/06/15 10:33:19;;;;;;;5.28;3.13;;;25.70;27.40;;;;;;5028117;28;20018;-73
2023/06/15 10:36:08;;;;;;;3.53;3.00;;;26.10;26.80;;;;;;5026401;28;20033;-72
2023/06/15 10:38:42;;;;;;;5.70;3.60;;;26.40;26.00;;;;;;5025754;28;20029;-72
2023/06/15 10:41:09;;;;;;;5.93;3.55;;;26.60;26.10;;;;;;5009069;28;20124;-72
2023/06/15 10:43:35;;;;;;;5.18;3.17;;;26.80;25.20;;;;;;5024554;28;20030;-72
2023/06/15 10:46:02;;;;;;;4.22;3.30;;;26.90;24.10;;;;;;5024773;28;20096;-71
2023/06/15 10:48:29;;;;;;;9.70;4.13;;;27.10;24.50;;;;;;5025760;28;20037;-72
2023/06/15 10:51:03;;;;;;;6.32;3.08;;;27.20;23.70;;;;;;5006658;28;20406;-72
2023/06/15 10:53:40;;;;;;;9.27;3.95;;;27.20;24.10;;;;;;5024205;28;20018;-72
2023/06/15 10:56:20;;;;;;;5.15;3.92;;;27.30;24.80;;;;;;5026630;28;20101;-71
2023/06/15 10:59:05;;;;;;;5.70;3.80;;;27.30;22.80;;;;;;5025942;28;20441;-71
2023/06/15 11:01:32;;;;;;;5.35;3.08;;;27.30;23.90;;;;;;5025954;28;20108;-71
2023/06/15 11:04:21;;;;;;;8.98;3.47;;;27.10;23.00;;;;;;5024104;28;20113;-75
2023/06/15 11:07:01;;;;;;;6.82;3.42;;;27.30;23.40;;;;;;4996814;28;20022;-72
2023/06/15 11:09:33;;;;;;;3.80;2.90;;;27.50;22.80;;;;;;4996648;28;20062;-74
2023/06/15 11:11:58;;;;;;;4.70;3.13;;;27.60;22.90;;;;;;4997435;28;20022;-73
2023/06/15 11:14:24;;;;;;;4.30;3.03;;;27.60;22.50;;;;;;4997544;28;20034;-71
2023/06/15 11:17:05;;;;;;;5.47;3.50;;;27.40;22.60;;;;;;4997415;28;20049;-74
2023/06/15 11:19:31;;;;;;;13.27;3.80;;;26.90;22.00;;;;;;4997592;28;20036;-75
2023/06/15 11:22:00;;;;;;;4.57;3.25;;;26.90;23.40;;;;;;4981334;28;20030;-75
2023/06/15 11:24:29;;;;;;;8.15;3.30;;;27.20;23.10;;;;;;4997115;28;20058;-74
2023/06/15 11:26:55;;;;;;;5.10;3.40;;;27.30;20.70;;;;;;4997147;28;20040;-73
2023/06/15 11:29:27;;;;;;;6.53;3.70;;;27.40;19.90;;;;;;4996919;28;20038;-73
2023/06/15 11:31:54;;;;;;;4.35;2.90;;;27.30;19.30;;;;;;4996782;28;20026;-73
2023/06/15 11:34:20;;;;;;;15.10;3.80;;;27.00;18.80;;;;;;4980128;28;20033;-73
2023/06/15 11:36:47;;;;;;;7.05;3.25;;;27.10;19.50;;;;;;4996700;28;20021;-72
2023/06/15 11:39:21;;;;;;;7.65;3.78;;;27.30;19.20;;;;;;4996257;28;20026;-73
2023/06/15 11:41:51;;;;;;;6.93;3.50;;;27.70;19.60;;;;;;4996977;28;20080;-72
2023/06/15 11:44:18;;;;;;;4.95;3.15;;;27.90;19.40;;;;;;4995379;28;20029;-74
2023/06/15 11:46:58;;;;;;;10.45;3.47;;;28.00;19.20;;;;;;4996737;28;20029;-70
2023/06/15 11:49:24;;;;;;;13.52;3.78;;;27.80;20.00;;;;;;5014152;28;20034;-71
2023/06/15 11:51:52;;;;;;;5.25;3.15;;;27.90;19.80;;;;;;4996501;28;20478;-71
2023/06/15 11:54:22;;;;;;;6.90;3.60;;;28.00;20.00;;;;;;5014465;28;20036;-72
2023/06/15 11:56:48;;;;;;;7.20;2.70;;;28.40;19.90;;;;;;5014603;28;20379;-73
2023/06/15 11:59:15;;;;;;;2.85;2.55;;;28.60;19.50;;;;;;5014657;28;20026;-72
2023/06/15 12:01:41;;;;;;;5.10;2.85;;;28.50;18.50;;;;;;5014605;28;20426;-72
2023/06/15 12:04:12;;;;;;;5.07;3.17;;;28.60;18.90;;;;;;5014388;28;20120;-74
2023/06/15 12:06:39;;;;;;;10.77;3.67;;;28.70;18.40;;;;;;5014603;28;20055;-71
2023/06/15 12:09:07;;;;;;;3.35;2.75;;;28.80;17.60;;;;;;5014459;28;20129;-71
2023/06/15 12:11:33;;;;;;;5.55;2.70;;;29.00;17.90;;;;;;5014118;28;20034;-74
2023/06/15 12:14:00;;;;;;;9.88;3.55;;;29.10;18.10;;;;;;5014741;28;20026;-78
2023/06/15 12:16:26;;;;;;;11.45;4.25;;;29.20;17.80;;;;;;5023528;28;20374;-75
2023/06/15 12:18:58;;;;;;;15.93;8.38;;;29.30;18.10;;;;;;5024219;28;20109;-78
2023/06/15 12:21:24;;;;;;;6.70;3.28;;;29.50;17.70;;;;;;5022892;28;20100;-73
2023/06/15 12:23:50;;;;;;;5.30;3.30;;;29.60;17.00;;;;;;5023178;28;20490;-78
2023/06/15 12:26:18;;;;;;;15.85;3.72;;;29.60;17.00;;;;;;5024145;28;20417;-72
2023/06/15 12:28:49;;;;;;;18.25;3.47;;;29.70;17.50;;;;;;5016365;28;20390;-74
2023/06/15 12:31:14;;;;;;;22.63;4.05;;;29.70;17.20;;;;;;5013867;28;20021;-70
2023/06/15 12:33:42;;;;;;;37.13;4.90;;;29.80;17.30;;;;;;5013970;28;20022;-71
2023/06/15 12:36:12;;;;;;;8.63;3.20;;;29.70;17.40;;;;;;5013156;28;20437;-69
2023/06/15 12:38:42;;;;;;;24.48;4.32;;;29.70;17.40;;;;;;5013600;28;20048;-70
2023/06/15 12:41:15;;;;;;;7.28;3.35;;;29.60;17.50;;;;;;5013771;28;20112;-71
2023/06/15 12:43:41;;;;;;;6.40;2.90;;;29.40;17.70;;;;;;5013609;28;20373;-72
2023/06/15 12:46:07;;;;;;;4.80;2.97;;;29.20;18.20;;;;;;5014004;28;20097;-70
2023/06/15 12:48:33;;;;;;;7.22;2.90;;;28.90;18.40;;;;;;5019023;28;20124;-71